createdAt,value
2022-11-30T00:01:11.608Z,84.23
2022-11-30T00:03:40.080Z,83.51
2022-11-30T00:06:10.280Z,84.82
2022-11-30T00:08:38.747Z,84.02
2022-11-30T00:11:12.720Z,84.18
2022-11-30T00:13:41.353Z,84.45
2022-11-30T00:16:09.855Z,84.20
2022-11-30T00:18:38.608Z,84.20
2022-11-30T00:21:09.171Z,84.65
2022-11-30T00:23:38.792Z,84.86
2022-11-30T00:26:08.880Z,85.03
2022-11-30T00:28:39.395Z,85.24
2022-11-30T00:31:09.743Z,85.48
2022-11-30T00:33:38.962Z,85.15
2022-11-30T00:36:08.996Z,84.70
2022-11-30T00:38:37.283Z,84.77
2022-11-30T00:41:06.062Z,84.83
2022-11-30T00:43:34.238Z,84.58
2022-11-30T00:46:03.965Z,84.51
2022-11-30T00:48:32.356Z,85.07
2022-11-30T00:51:00.514Z,85.32
2022-11-30T00:53:28.703Z,84.48
2022-11-30T00:55:57.106Z,84.35
2022-11-30T00:58:25.353Z,84.46
2022-11-30T01:00:54.058Z,84.53
2022-11-30T01:03:23.820Z,84.34
2022-11-30T01:05:52.059Z,84.35
2022-11-30T01:08:20.616Z,84.10
2022-11-30T01:10:53.492Z,84.28
2022-11-30T01:13:21.680Z,84.40
2022-11-30T01:15:49.977Z,84.51
2022-11-30T01:18:18.325Z,83.70
2022-11-30T01:20:47.864Z,84.34
2022-11-30T01:23:16.085Z,84.93
2022-11-30T01:25:44.396Z,84.55
2022-11-30T01:28:12.561Z,85.32
2022-11-30T01:30:41.008Z,85.01
2022-11-30T01:33:09.309Z,84.73
2022-11-30T01:35:37.504Z,85.04
2022-11-30T01:38:07.170Z,84.36
2022-11-30T01:40:35.595Z,84.90
2022-11-30T01:43:03.907Z,84.26
2022-11-30T01:45:32.137Z,84.55
2022-11-30T01:48:00.471Z,85.24
2022-11-30T01:50:30.854Z,85.24
2022-11-30T01:52:59.309Z,85.28
2022-11-30T01:55:31.713Z,84.26
2022-11-30T01:58:04.368Z,84.35
2022-11-30T02:00:32.842Z,84.04
2022-11-30T02:03:04.504Z,84.28
2022-11-30T02:05:33.179Z,84.54
2022-11-30T02:08:02.374Z,85.09
2022-11-30T02:10:34.403Z,83.79
2022-11-30T02:13:15.568Z,84.24
2022-11-30T02:16:11.657Z,84.56
2022-11-30T02:18:45.944Z,84.75
2022-11-30T02:21:15.929Z,85.03
2022-11-30T02:24:21.903Z,84.40
2022-11-30T02:27:20.038Z,83.67
2022-11-30T02:29:51.266Z,82.31
2022-11-30T02:32:24.361Z,82.77
2022-11-30T02:34:52.535Z,82.30
2022-11-30T02:37:21.086Z,83.11
2022-11-30T02:39:49.407Z,82.12
2022-11-30T02:42:17.641Z,83.08
2022-11-30T02:44:48.421Z,82.61
2022-11-30T02:47:23.124Z,84.35
2022-11-30T02:49:55.432Z,83.32
2022-11-30T02:52:26.147Z,82.75
2022-11-30T02:54:54.488Z,82.93
2022-11-30T02:57:22.673Z,83.09
2022-11-30T02:59:50.983Z,84.18
2022-11-30T03:02:20.679Z,84.76
2022-11-30T03:04:49.081Z,84.05
2022-11-30T03:07:17.623Z,84.12
2022-11-30T03:09:45.921Z,84.22
2022-11-30T03:12:14.132Z,84.51
2022-11-30T03:14:42.463Z,84.26
2022-11-30T03:17:10.884Z,84.44
2022-11-30T03:19:40.456Z,84.46
2022-11-30T03:22:08.763Z,84.59
2022-11-30T03:24:37.030Z,85.25
2022-11-30T03:27:05.388Z,83.90
2022-11-30T03:29:33.666Z,84.85
2022-11-30T03:32:01.850Z,84.42
2022-11-30T03:34:30.040Z,84.21
2022-11-30T03:36:59.832Z,84.43
2022-11-30T03:39:28.195Z,84.54
2022-11-30T03:41:56.347Z,84.96
2022-11-30T03:44:24.639Z,84.25
2022-11-30T03:46:53.064Z,84.72
2022-11-30T03:49:21.520Z,85.02
2022-11-30T03:51:49.784Z,84.66
2022-11-30T03:54:19.348Z,84.18
2022-11-30T03:56:47.524Z,84.36
2022-11-30T03:59:15.869Z,84.27
2022-11-30T04:01:44.188Z,83.88
2022-11-30T04:04:13.040Z,84.44
2022-11-30T04:06:41.985Z,84.30
2022-11-30T04:09:10.717Z,83.86
2022-11-30T04:11:40.256Z,83.54
2022-11-30T04:14:08.786Z,84.75
2022-11-30T04:16:37.049Z,83.80
2022-11-30T04:19:05.592Z,84.56
2022-11-30T04:21:34.077Z,84.84
2022-11-30T04:24:02.452Z,83.66
2022-11-30T04:26:30.695Z,84.23
2022-11-30T04:29:04.139Z,85.00
2022-11-30T04:31:32.925Z,84.73
2022-11-30T04:34:01.357Z,83.65
2022-11-30T04:36:29.738Z,83.83
2022-11-30T04:38:57.957Z,84.80
2022-11-30T04:41:26.560Z,83.14
2022-11-30T04:43:54.736Z,84.24
2022-11-30T04:46:24.429Z,83.85
2022-11-30T04:48:52.735Z,84.26
2022-11-30T04:51:20.973Z,83.59
2022-11-30T04:53:49.406Z,84.34
2022-11-30T04:56:17.955Z,84.56
2022-11-30T04:58:46.118Z,84.03
2022-11-30T05:01:14.446Z,84.05
2022-11-30T05:03:44.206Z,84.21
2022-11-30T05:06:12.460Z,84.38
2022-11-30T05:08:40.653Z,84.49
2022-11-30T05:11:08.967Z,85.00
2022-11-30T05:13:37.242Z,84.80
2022-11-30T05:16:05.887Z,84.32
2022-11-30T05:18:34.321Z,84.46
2022-11-30T05:21:04.083Z,84.21
2022-11-30T05:23:32.296Z,84.19
2022-11-30T05:26:03.240Z,84.80
2022-11-30T05:28:31.491Z,84.33
2022-11-30T05:31:04.498Z,83.94
2022-11-30T05:33:32.494Z,83.47
2022-11-30T05:36:04.599Z,84.26
2022-11-30T05:38:37.003Z,83.19
2022-11-30T05:41:05.328Z,84.61
2022-11-30T05:43:33.526Z,84.08
2022-11-30T05:46:02.199Z,83.48
2022-11-30T05:48:30.392Z,83.46
2022-11-30T05:51:06.538Z,83.43
2022-11-30T05:53:36.173Z,83.79
2022-11-30T05:56:05.666Z,82.54
2022-11-30T05:58:34.412Z,82.48
2022-11-30T06:01:02.664Z,82.82
2022-11-30T06:03:31.331Z,83.13
2022-11-30T06:05:59.743Z,82.67
2022-11-30T06:08:28.528Z,82.74
2022-11-30T06:11:01.627Z,82.72
2022-11-30T06:13:29.611Z,83.23
2022-11-30T06:16:00.514Z,83.55
2022-11-30T06:18:29.047Z,83.54
2022-11-30T06:21:01.169Z,83.21
2022-11-30T06:23:29.477Z,82.53
2022-11-30T06:25:59.055Z,83.01
2022-11-30T06:28:27.429Z,82.66
2022-11-30T06:30:59.859Z,82.42
2022-11-30T06:33:28.212Z,83.86
2022-11-30T06:35:56.702Z,82.67
2022-11-30T06:38:26.132Z,82.54
2022-11-30T06:40:54.878Z,82.55
2022-11-30T06:43:24.521Z,83.37
2022-11-30T06:45:52.824Z,83.15
2022-11-30T06:48:23.064Z,82.98
2022-11-30T06:50:51.312Z,83.19
2022-11-30T06:53:19.649Z,83.74
2022-11-30T06:55:47.796Z,83.55
2022-11-30T06:58:15.981Z,83.11
2022-11-30T07:00:46.109Z,83.34
2022-11-30T07:03:15.332Z,83.06
2022-11-30T07:05:45.243Z,82.46
2022-11-30T07:08:13.976Z,81.93
2022-11-30T07:10:42.407Z,82.58
2022-11-30T07:13:13.712Z,82.10
2022-11-30T07:15:42.217Z,81.80
2022-11-30T07:18:12.433Z,82.85
2022-11-30T07:20:41.085Z,82.11
2022-11-30T07:23:26.732Z,81.89
2022-11-30T07:26:07.700Z,81.85
2022-11-30T07:28:37.724Z,81.32
2022-11-30T07:31:16.587Z,81.57
2022-11-30T07:33:46.744Z,81.23
2022-11-30T07:36:15.307Z,81.65
2022-11-30T07:38:43.816Z,82.06
2022-11-30T07:41:12.089Z,83.18
2022-11-30T07:43:40.528Z,82.66
2022-11-30T07:46:09.219Z,82.77
2022-11-30T07:48:37.635Z,82.85
2022-11-30T07:51:08.837Z,82.71
2022-11-30T07:53:38.450Z,82.32
2022-11-30T07:56:07.901Z,82.71
2022-11-30T07:58:36.440Z,82.79
2022-11-30T08:01:05.467Z,83.34
2022-11-30T08:03:37.106Z,83.98
2022-11-30T08:06:09.521Z,83.97
2022-11-30T08:08:40.166Z,83.98
2022-11-30T08:11:10.075Z,84.51
2022-11-30T08:13:38.466Z,85.52
2022-11-30T08:16:08.921Z,86.15
2022-11-30T08:18:37.687Z,86.68
2022-11-30T08:21:08.883Z,85.98
2022-11-30T08:23:39.529Z,85.17
2022-11-30T08:26:10.318Z,84.81
2022-11-30T08:28:38.745Z,85.18
2022-11-30T08:31:10.079Z,85.08
2022-11-30T08:33:38.939Z,84.22
2022-11-30T08:36:09.693Z,83.33
2022-11-30T08:38:38.375Z,83.00
2022-11-30T08:41:07.918Z,82.28
2022-11-30T08:43:36.300Z,82.41
2022-11-30T08:46:16.148Z,81.55
2022-11-30T08:49:12.545Z,76.96
2022-11-30T08:52:15.460Z,73.65
2022-11-30T08:54:34.700Z,72.57
2022-11-30T08:57:02.871Z,72.39
2022-11-30T08:59:32.632Z,73.67
2022-11-30T09:02:01.004Z,77.88
2022-11-30T09:04:29.445Z,80.92
2022-11-30T09:07:01.179Z,81.61
2022-11-30T09:09:29.484Z,81.39
2022-11-30T09:11:57.754Z,81.33
2022-11-30T09:14:26.140Z,80.69
2022-11-30T09:16:55.253Z,81.55
2022-11-30T09:19:23.604Z,80.82
2022-11-30T09:21:52.664Z,80.76
2022-11-30T09:24:22.444Z,81.69
2022-11-30T09:26:50.693Z,81.92
2022-11-30T09:29:19.009Z,81.99
2022-11-30T09:31:47.309Z,80.36
2022-11-30T09:34:15.535Z,78.06
2022-11-30T09:36:44.123Z,78.35
2022-11-30T09:39:12.989Z,76.85
2022-11-30T09:42:09.760Z,75.30
2022-11-30T09:44:45.159Z,73.84
2022-11-30T09:47:31.910Z,77.45
2022-11-30T09:50:04.052Z,79.51
2022-11-30T09:52:37.565Z,80.31
2022-11-30T09:55:07.433Z,82.10
2022-11-30T09:57:44.321Z,82.75
2022-11-30T10:00:15.525Z,83.76
2022-11-30T10:02:45.055Z,83.96
2022-11-30T10:05:18.576Z,84.99
2022-11-30T10:08:04.539Z,85.38
2022-11-30T10:10:37.791Z,84.33
2022-11-30T10:13:21.572Z,84.67
2022-11-30T10:15:58.772Z,84.60
2022-11-30T10:18:34.008Z,83.83
2022-11-30T10:21:09.787Z,83.64
2022-11-30T10:23:46.837Z,84.07
2022-11-30T10:26:17.443Z,84.03
2022-11-30T10:28:52.514Z,84.39
2022-11-30T10:31:22.787Z,83.97
2022-11-30T10:33:52.689Z,84.41
2022-11-30T10:36:27.093Z,84.50
2022-11-30T10:38:58.253Z,84.62
2022-11-30T10:41:28.395Z,84.17
2022-11-30T10:44:02.625Z,83.82
2022-11-30T10:46:35.093Z,83.21
2022-11-30T10:49:06.688Z,82.89
2022-11-30T10:51:37.372Z,83.83
2022-11-30T10:54:14.972Z,83.96
2022-11-30T10:56:43.316Z,83.78
2022-11-30T10:59:19.189Z,83.05
2022-11-30T11:01:47.632Z,83.00
2022-11-30T11:04:18.622Z,82.33
2022-11-30T11:06:48.622Z,82.88
2022-11-30T11:09:34.825Z,82.67
2022-11-30T11:12:04.739Z,83.08
2022-11-30T11:14:37.935Z,83.06
2022-11-30T11:17:08.168Z,83.68
2022-11-30T11:19:39.215Z,83.29
2022-11-30T11:22:12.575Z,83.64
2022-11-30T11:24:40.509Z,82.62
2022-11-30T11:27:08.796Z,83.73
2022-11-30T11:29:38.564Z,83.64
2022-11-30T11:32:14.680Z,83.44
2022-11-30T11:34:50.715Z,83.75
2022-11-30T11:37:22.124Z,82.65
2022-11-30T11:39:59.152Z,83.24
2022-11-30T11:42:28.933Z,83.02
2022-11-30T11:45:00.541Z,83.94
2022-11-30T11:47:31.211Z,83.81
2022-11-30T11:50:31.706Z,83.97
2022-11-30T11:53:22.968Z,84.13
2022-11-30T11:55:53.536Z,83.58
2022-11-30T11:58:29.420Z,83.90
2022-11-30T12:01:17.160Z,83.56
2022-11-30T12:04:00.691Z,83.17
2022-11-30T12:06:29.529Z,84.08
2022-11-30T12:09:01.234Z,84.44
2022-11-30T12:11:41.533Z,84.44
2022-11-30T12:14:13.242Z,84.10
2022-11-30T12:17:02.853Z,84.64
2022-11-30T12:19:36.716Z,84.75
2022-11-30T12:22:14.816Z,84.94
2022-11-30T12:25:05.512Z,85.11
2022-11-30T12:27:39.882Z,84.61
2022-11-30T12:30:12.764Z,84.36
2022-11-30T12:33:10.426Z,84.84
2022-11-30T12:35:45.305Z,85.05
2022-11-30T12:38:22.452Z,84.91
2022-11-30T12:40:57.488Z,85.03
2022-11-30T12:43:31.471Z,85.05
2022-11-30T12:46:04.983Z,85.49
2022-11-30T12:48:41.117Z,85.56
2022-11-30T12:51:16.235Z,86.01
2022-11-30T12:53:49.158Z,85.88
2022-11-30T12:56:24.345Z,86.43
2022-11-30T12:58:56.123Z,86.50
2022-11-30T13:01:38.273Z,86.57
2022-11-30T13:04:11.608Z,87.01
2022-11-30T13:06:40.302Z,86.63
2022-11-30T13:09:15.136Z,86.89
2022-11-30T13:11:46.734Z,86.64
2022-11-30T13:14:17.957Z,86.82
2022-11-30T13:16:47.572Z,86.94
2022-11-30T13:19:28.327Z,87.33
2022-11-30T13:21:59.443Z,87.31
2022-11-30T13:24:32.581Z,86.83
2022-11-30T13:27:03.074Z,87.11
2022-11-30T13:29:51.135Z,87.48
2022-11-30T13:32:56.143Z,87.95
2022-11-30T13:35:43.009Z,88.73
2022-11-30T13:41:09.433Z,88.53
2022-11-30T13:43:38.770Z,88.46
2022-11-30T13:46:13.204Z,88.14
2022-11-30T13:48:42.776Z,88.21
2022-11-30T13:51:13.472Z,88.07
2022-11-30T13:53:42.185Z,88.27
2022-11-30T13:56:37.801Z,88.09
2022-11-30T13:59:36.330Z,88.23
2022-11-30T14:02:44.737Z,87.86
2022-11-30T14:05:37.929Z,87.66
2022-11-30T14:08:32.988Z,87.94
2022-11-30T14:11:41.618Z,87.22
2022-11-30T14:14:45.111Z,87.02
2022-11-30T14:17:26.472Z,87.38
2022-11-30T14:19:57.073Z,87.36
2022-11-30T14:22:26.840Z,86.87
2022-11-30T14:24:57.409Z,86.95
2022-11-30T14:27:28.763Z,86.81
2022-11-30T14:30:02.313Z,87.96
2022-11-30T14:32:38.005Z,87.11
2022-11-30T14:35:11.815Z,87.31
2022-11-30T14:37:45.047Z,87.91
2022-11-30T14:40:19.368Z,88.48
2022-11-30T14:42:50.596Z,88.30
2022-11-30T14:45:25.802Z,88.61
2022-11-30T14:48:04.725Z,87.49
2022-11-30T14:50:33.131Z,88.24
2022-11-30T14:53:17.244Z,87.50
2022-11-30T14:55:52.832Z,87.64
2022-11-30T14:58:26.315Z,90.20
2022-11-30T15:00:55.079Z,88.08
2022-11-30T15:03:27.355Z,87.50
2022-11-30T15:05:58.235Z,86.06
2022-11-30T15:08:30.739Z,86.05
2022-11-30T15:11:05.313Z,86.06
2022-11-30T15:13:33.835Z,85.87
2022-11-30T15:16:02.109Z,86.85
2022-11-30T15:18:30.687Z,86.54
2022-11-30T15:21:00.846Z,87.43
2022-11-30T15:23:29.414Z,86.48
2022-11-30T15:26:01.548Z,86.59
2022-11-30T15:28:33.395Z,87.17
2022-11-30T15:31:04.424Z,88.48
2022-11-30T15:33:35.415Z,88.54
2022-11-30T15:36:22.858Z,85.38
2022-11-30T15:38:53.352Z,86.49
2022-11-30T15:41:24.204Z,85.92
2022-11-30T15:43:54.181Z,87.85
2022-11-30T15:46:34.394Z,87.51
2022-11-30T15:49:16.677Z,86.41
2022-11-30T15:51:47.518Z,87.15
2022-11-30T15:54:15.764Z,86.77
2022-11-30T15:56:56.990Z,86.47
2022-11-30T15:59:27.417Z,87.34
2022-11-30T16:02:05.065Z,89.51
2022-11-30T16:05:12.371Z,87.17
2022-11-30T16:07:50.473Z,90.11
2022-11-30T16:10:21.405Z,87.35
2022-11-30T16:12:52.728Z,90.73
2022-11-30T16:15:23.777Z,90.66
2022-11-30T16:17:52.241Z,89.72
2022-11-30T16:20:21.984Z,90.68
2022-11-30T16:22:50.550Z,90.47
2022-11-30T16:25:20.329Z,90.13
2022-11-30T16:27:49.052Z,88.72
2022-11-30T16:30:21.126Z,88.11
2022-11-30T16:32:49.751Z,89.48
2022-11-30T16:35:23.167Z,89.19
2022-11-30T16:37:51.986Z,87.21
2022-11-30T16:40:21.281Z,87.26
2022-11-30T16:42:50.569Z,87.58
2022-11-30T16:45:22.791Z,90.32
2022-11-30T16:47:51.441Z,90.84
2022-11-30T16:50:20.696Z,88.95
2022-11-30T16:52:49.272Z,89.27
2022-11-30T16:55:19.317Z,89.88
2022-11-30T16:57:47.623Z,86.89
2022-11-30T17:00:19.288Z,86.68
2022-11-30T17:02:52.168Z,87.10
2022-11-30T17:05:20.705Z,86.81
2022-11-30T17:07:48.953Z,86.97
2022-11-30T17:10:17.393Z,87.86
2022-11-30T17:12:45.832Z,88.88
2022-11-30T17:15:17.162Z,87.41
2022-11-30T17:17:45.880Z,87.79
2022-11-30T17:20:17.097Z,87.32
2022-11-30T17:22:46.140Z,86.14
2022-11-30T17:25:17.881Z,85.71
2022-11-30T17:27:46.783Z,85.48
2022-11-30T17:30:17.761Z,85.17
2022-11-30T17:32:46.131Z,85.79
2022-11-30T17:35:16.501Z,85.49
2022-11-30T17:37:44.854Z,84.49
2022-11-30T17:40:15.571Z,84.77
2022-11-30T17:42:44.242Z,85.00
2022-11-30T17:45:12.875Z,85.75
2022-11-30T17:47:41.151Z,85.92
2022-11-30T17:50:10.740Z,86.38
2022-11-30T17:52:40.464Z,84.68
2022-11-30T17:55:09.768Z,84.79
2022-11-30T17:57:39.906Z,86.05
2022-11-30T18:00:09.882Z,85.77
2022-11-30T18:02:38.317Z,85.14
2022-11-30T18:05:07.685Z,85.51
2022-11-30T18:07:36.363Z,85.23
2022-11-30T18:10:07.176Z,85.17
2022-11-30T18:12:35.486Z,85.98
2022-11-30T18:15:03.885Z,85.00
2022-11-30T18:17:33.179Z,84.81
2022-11-30T18:20:01.672Z,85.74
2022-11-30T18:22:33.073Z,85.01
2022-11-30T18:25:01.432Z,85.17
2022-11-30T18:27:31.838Z,84.27
2022-11-30T18:30:03.715Z,84.23
2022-11-30T18:32:34.356Z,83.37
2022-11-30T18:35:02.714Z,84.01
2022-11-30T18:37:31.606Z,83.41
2022-11-30T18:39:59.846Z,83.74
2022-11-30T18:42:28.194Z,83.17
2022-11-30T18:44:57.812Z,82.14
2022-11-30T18:47:26.156Z,83.52
2022-11-30T18:49:54.527Z,84.18
2022-11-30T18:52:23.098Z,83.34
2022-11-30T18:54:51.540Z,82.77
2022-11-30T18:57:20.033Z,83.03
2022-11-30T18:59:53.647Z,82.25
2022-11-30T19:02:24.488Z,82.50
2022-11-30T19:04:52.997Z,82.52
2022-11-30T19:07:21.343Z,82.88
2022-11-30T19:09:50.552Z,83.13
2022-11-30T19:12:18.831Z,83.85
2022-11-30T19:14:47.368Z,82.99
2022-11-30T19:17:16.079Z,82.28
2022-11-30T19:19:46.126Z,82.85
2022-11-30T19:22:14.299Z,82.16
2022-11-30T19:24:42.665Z,82.59
2022-11-30T19:27:10.971Z,82.30
2022-11-30T19:29:39.370Z,82.51
2022-11-30T19:32:07.822Z,83.62
2022-11-30T19:34:36.605Z,83.10
2022-11-30T19:37:06.276Z,83.77
2022-11-30T19:39:35.029Z,83.87
2022-11-30T19:42:03.299Z,83.90
2022-11-30T19:44:31.660Z,83.73
2022-11-30T19:47:00.153Z,83.40
2022-11-30T19:49:30.986Z,83.54
2022-11-30T19:51:59.476Z,83.84
2022-11-30T19:54:29.369Z,83.66
2022-11-30T19:56:59.197Z,83.34
2022-11-30T19:59:27.508Z,84.13
2022-11-30T20:01:55.961Z,83.25
2022-11-30T20:04:25.212Z,83.34
2022-11-30T20:06:54.156Z,82.72
2022-11-30T20:09:22.817Z,83.28
2022-11-30T20:11:52.680Z,83.61
2022-11-30T20:14:22.612Z,83.56
2022-11-30T20:16:53.039Z,83.21
2022-11-30T20:19:21.232Z,82.46
2022-11-30T20:21:49.573Z,83.54
2022-11-30T20:24:17.952Z,83.75
2022-11-30T20:26:46.433Z,84.18
2022-11-30T20:29:18.072Z,83.76
2022-11-30T20:31:47.499Z,83.82
2022-11-30T20:34:15.914Z,84.04
2022-11-30T20:36:45.345Z,84.05
2022-11-30T20:39:14.096Z,84.74
2022-11-30T20:41:42.506Z,84.46
2022-11-30T20:44:16.252Z,84.14
2022-11-30T20:46:44.894Z,83.20
2022-11-30T20:49:18.616Z,82.85
2022-11-30T20:51:47.172Z,83.94
2022-11-30T20:54:18.358Z,83.54
2022-11-30T20:56:50.950Z,83.14
2022-11-30T20:59:23.842Z,82.04
2022-11-30T21:01:52.535Z,82.04
2022-11-30T21:04:21.088Z,83.37
2022-11-30T21:06:49.910Z,83.15
2022-11-30T21:09:20.061Z,83.02
2022-11-30T21:11:49.365Z,82.22
2022-11-30T21:14:18.782Z,81.91
2022-11-30T21:16:48.535Z,82.00
2022-11-30T21:19:16.956Z,82.89
2022-11-30T21:21:45.239Z,82.93
2022-11-30T21:24:13.984Z,82.47
2022-11-30T21:26:43.901Z,82.39
2022-11-30T21:29:13.224Z,82.13
2022-11-30T21:31:41.791Z,81.74
2022-11-30T21:34:11.593Z,82.17
2022-11-30T21:36:40.201Z,81.89
2022-11-30T21:39:09.762Z,81.80
2022-11-30T21:41:40.275Z,82.42
2022-11-30T21:44:11.112Z,82.42
2022-11-30T21:46:39.456Z,82.59
2022-11-30T21:49:09.637Z,82.47
2022-11-30T21:51:39.574Z,81.98
2022-11-30T21:54:09.421Z,82.40
2022-11-30T21:56:39.195Z,82.78
2022-11-30T21:59:09.075Z,81.44
2022-11-30T22:01:38.840Z,81.70
2022-11-30T22:04:09.249Z,82.22
2022-11-30T22:06:40.112Z,82.44
2022-11-30T22:09:10.465Z,81.92
2022-11-30T22:11:40.865Z,81.24
2022-11-30T22:14:12.621Z,81.94
2022-11-30T22:16:41.217Z,81.47
2022-11-30T22:19:09.575Z,81.42
2022-11-30T22:21:39.375Z,81.75
2022-11-30T22:24:10.476Z,81.58
2022-11-30T22:26:40.079Z,81.30
2022-11-30T22:29:09.750Z,81.73
2022-11-30T22:31:40.338Z,81.95
2022-11-30T22:34:08.892Z,82.56
2022-11-30T22:36:40.035Z,82.44
2022-11-30T22:39:11.566Z,81.02
2022-11-30T22:41:41.443Z,81.05
2022-11-30T22:44:11.432Z,80.56
2022-11-30T22:46:39.800Z,80.54
2022-11-30T22:49:09.707Z,81.17
2022-11-30T22:54:07.996Z,81.17
2022-11-30T22:56:37.846Z,80.72
2022-11-30T22:59:06.861Z,80.88
2022-11-30T23:01:36.714Z,81.00
2022-11-30T23:04:06.641Z,81.56
2022-11-30T23:06:35.884Z,82.25
2022-11-30T23:09:06.749Z,81.47
2022-11-30T23:11:35.677Z,81.25
2022-11-30T23:14:06.249Z,81.18
2022-11-30T23:16:34.600Z,81.61
2022-11-30T23:19:03.143Z,81.48
2022-11-30T23:21:38.955Z,80.29
2022-11-30T23:24:14.156Z,80.56
2022-11-30T23:26:43.224Z,80.56
2022-11-30T23:29:14.063Z,81.29
2022-11-30T23:31:43.772Z,81.00
2022-11-30T23:34:14.294Z,81.14
2022-11-30T23:36:42.604Z,80.43
2022-11-30T23:39:14.058Z,81.70
2022-11-30T23:41:43.122Z,81.89
2022-11-30T23:44:12.239Z,81.26
2022-11-30T23:46:40.666Z,82.55
2022-11-30T23:49:09.123Z,82.64
2022-11-30T23:51:37.432Z,82.76
2022-11-30T23:54:05.998Z,81.39
2022-11-30T23:56:35.572Z,80.95
2022-11-30T23:59:03.775Z,80.89
